Time,TemperatureF,DewpointF,PressureIn,WindDirection,WindDirectionDegrees,WindSpeedMPH,WindSpeedGustMPH,Humidity,HourlyPrecipIn,Conditions,Clouds,dailyrainin,SoftwareType,DateUTC
2013-05-05 00:02:00,53.0,53.0,29.98,NE,45,0.0,0.0,100,0.00,,,0.62,,2013-05-05 04:02:00,
2013-05-05 00:12:00,53.0,53.0,29.98,NE,45,0.0,0.0,100,0.00,,,0.62,,2013-05-05 04:12:00,
2013-05-05 00:22:00,53.0,53.0,29.98,NE,45,1.0,2.0,100,0.00,,,0.63,,2013-05-05 04:22:00,
2013-05-05 00:32:00,53.0,53.0,29.97,NNE,22,2.0,3.0,100,0.00,,,0.64,,2013-05-05 04:32:00,
2013-05-05 00:43:00,53.0,53.0,29.97,NNE,22,2.0,3.0,100,0.00,,,0.64,,2013-05-05 04:43:00,
2013-05-05 00:52:00,53.0,53.0,29.96,NNE,22,2.0,4.0,100,0.00,,,0.64,,2013-05-05 04:52:00,
2013-05-05 01:02:00,53.0,53.0,29.96,NE,45,2.0,3.0,100,0.00,,,0.65,,2013-05-05 05:02:00,
2013-05-05 01:12:00,53.0,53.0,29.96,NE,45,2.0,3.0,100,0.00,,,0.65,,2013-05-05 05:12:00,
2013-05-05 01:21:00,53.0,53.0,29.96,NE,45,3.0,7.0,100,0.00,,,0.66,,2013-05-05 05:21:00,
2013-05-05 01:32:00,53.0,53.0,29.96,NE,45,3.0,6.0,100,0.00,,,0.66,,2013-05-05 05:32:00,
2013-05-05 01:42:00,53.0,53.0,29.96,NE,45,3.0,6.0,100,0.00,,,0.66,,2013-05-05 05:42:00,
2013-05-05 01:51:00,53.0,53.0,29.95,NNE,22,3.0,6.0,100,0.00,,,0.67,,2013-05-05 05:51:00,
2013-05-05 02:01:00,53.0,53.0,29.95,North,360,5.0,7.0,100,0.00,,,0.68,,2013-05-05 06:01:00,
2013-05-05 02:12:00,53.0,53.0,29.95,North,360,5.0,7.0,100,0.00,,,0.68,,2013-05-05 06:12:00,
2013-05-05 02:21:00,53.0,53.0,29.94,North,360,5.0,6.0,100,0.00,,,0.68,,2013-05-05 06:21:00,
2013-05-05 02:32:00,53.0,53.0,29.94,North,360,5.0,6.0,100,0.00,,,0.68,,2013-05-05 06:32:00,
2013-05-05 02:42:00,53.0,53.0,29.94,North,360,5.0,6.0,100,0.00,,,0.68,,2013-05-05 06:42:00,
2013-05-05 02:52:00,53.0,53.0,29.93,NNE,22,6.0,8.0,100,0.00,,,0.68,,2013-05-05 06:52:00,
2013-05-05 03:01:00,53.0,53.0,29.92,NNE,22,4.0,6.0,100,0.00,,,0.69,,2013-05-05 07:01:00,
2013-05-05 03:11:00,53.0,53.0,29.92,NNE,22,4.0,6.0,100,0.00,,,0.69,,2013-05-05 07:11:00,
2013-05-05 03:21:00,53.0,53.0,29.92,North,360,5.0,7.0,100,0.00,,,0.69,,2013-05-05 07:21:00,
2013-05-05 03:32:00,53.0,53.0,29.91,NNE,22,5.0,7.0,100,0.00,,,0.70,,2013-05-05 07:32:00,
2013-05-05 03:42:00,53.0,53.0,29.91,NNE,22,5.0,7.0,100,0.00,,,0.70,,2013-05-05 07:42:00,
2013-05-05 03:52:00,53.0,53.0,29.91,NNE,22,4.0,6.0,100,0.00,,,0.70,,2013-05-05 07:52:00,
2013-05-05 04:02:00,53.0,53.0,29.91,North,360,3.0,5.0,100,0.00,,,0.70,,2013-05-05 08:02:00,
2013-05-05 04:11:00,53.0,53.0,29.91,North,360,3.0,5.0,100,0.00,,,0.70,,2013-05-05 08:11:00,
2013-05-05 04:21:00,53.0,53.0,29.91,North,360,4.0,5.0,100,0.00,,,0.71,,2013-05-05 08:21:00,
2013-05-05 04:31:00,53.0,53.0,29.90,NNE,22,4.0,5.0,100,0.00,,,0.74,,2013-05-05 08:31:00,
2013-05-05 04:42:00,53.0,53.0,29.90,NNE,22,4.0,5.0,100,0.00,,,0.74,,2013-05-05 08:42:00,
2013-05-05 04:53:00,53.0,53.0,29.90,North,360,3.0,6.0,100,0.00,,,0.76,,2013-05-05 08:53:00,
2013-05-05 05:01:00,53.0,53.0,29.90,North,360,5.0,6.0,100,0.00,,,0.78,,2013-05-05 09:01:00,
2013-05-05 05:11:00,53.0,53.0,29.90,North,360,5.0,6.0,100,0.00,,,0.78,,2013-05-05 09:11:00,
2013-05-05 05:21:00,53.0,53.0,29.90,NNE,22,4.0,9.0,100,0.00,,,0.79,,2013-05-05 09:21:00,
2013-05-05 05:32:00,53.0,53.0,29.90,NNE,22,5.0,7.0,100,0.00,,,0.82,,2013-05-05 09:32:00,
2013-05-05 05:42:00,53.0,53.0,29.90,NNE,22,5.0,7.0,100,0.00,,,0.82,,2013-05-05 09:42:00,
2013-05-05 05:52:00,53.0,53.0,29.89,North,360,4.0,7.0,100,0.00,,,0.85,,2013-05-05 09:52:00,
2013-05-05 06:02:00,53.0,53.0,29.88,North,360,4.0,6.0,100,0.00,,,0.86,,2013-05-05 10:02:00,
2013-05-05 06:12:00,53.0,53.0,29.88,North,360,4.0,6.0,100,0.00,,,0.86,,2013-05-05 10:12:00,
2013-05-05 06:22:00,53.0,53.0,29.88,North,360,4.0,7.0,100,0.00,,,0.89,,2013-05-05 10:22:00,
2013-05-05 06:32:00,53.0,53.0,29.88,North,360,5.0,7.0,100,0.00,,,0.90,,2013-05-05 10:32:00,
2013-05-05 06:42:00,53.0,53.0,29.88,North,360,5.0,7.0,100,0.00,,,0.90,,2013-05-05 10:42:00,
2013-05-05 06:53:00,53.0,53.0,29.88,North,360,4.0,8.0,100,0.00,,,0.91,,2013-05-05 10:53:00,
2013-05-05 07:01:00,53.0,53.0,29.88,NE,45,3.0,6.0,100,0.00,,,0.93,,2013-05-05 11:01:00,
2013-05-05 07:12:00,53.0,53.0,29.88,NE,45,3.0,6.0,100,0.00,,,0.93,,2013-05-05 11:12:00,
2013-05-05 07:21:00,53.0,53.0,29.88,NNE,22,4.0,7.0,100,0.00,,,0.94,,2013-05-05 11:21:00,
2013-05-05 07:32:00,53.0,53.0,29.88,NNE,22,4.0,7.0,100,0.00,,,0.94,,2013-05-05 11:32:00,
2013-05-05 07:42:00,53.0,53.0,29.88,NNE,22,4.0,7.0,100,0.00,,,0.94,,2013-05-05 11:42:00,
2013-05-05 07:51:00,53.0,53.0,29.90,North,360,3.0,7.0,100,0.00,,,1.02,,2013-05-05 11:51:00,
2013-05-05 08:02:00,53.0,53.0,29.90,SE,135,1.0,4.0,100,0.00,,,1.03,,2013-05-05 12:02:00,
2013-05-05 08:11:00,53.0,53.0,29.90,SE,135,1.0,4.0,100,0.00,,,1.03,,2013-05-05 12:11:00,
2013-05-05 08:21:00,54.0,54.0,29.90,NE,45,5.0,7.0,100,0.00,,,1.11,,2013-05-05 12:21:00,
2013-05-05 08:32:00,54.0,54.0,29.90,NE,45,4.0,6.0,100,0.00,,,1.18,,2013-05-05 12:32:00,
2013-05-05 08:42:00,54.0,54.0,29.90,NE,45,4.0,6.0,100,0.00,,,1.18,,2013-05-05 12:42:00,
2013-05-05 08:52:00,54.0,54.0,29.90,SSE,157,3.0,6.0,100,0.00,,,1.19,,2013-05-05 12:52:00,
2013-05-05 09:01:00,54.0,54.0,29.90,ENE,67,3.0,4.0,100,0.00,,,1.21,,2013-05-05 13:01:00,
2013-05-05 09:11:00,54.0,54.0,29.90,ENE,67,3.0,4.0,100,0.00,,,1.21,,2013-05-05 13:11:00,
2013-05-05 09:21:00,54.0,54.0,29.90,ENE,67,1.0,4.0,100,0.00,,,1.24,,2013-05-05 13:21:00,
2013-05-05 09:32:00,54.0,54.0,29.90,NNE,22,1.0,4.0,100,0.00,,,1.26,,2013-05-05 13:32:00,
2013-05-05 09:42:00,54.0,54.0,29.90,NNE,22,1.0,4.0,100,0.00,,,1.26,,2013-05-05 13:42:00,
2013-05-05 09:52:00,54.0,54.0,29.89,ENE,67,2.0,5.0,100,0.00,,,1.28,,2013-05-05 13:52:00,
2013-05-05 10:01:00,54.0,54.0,29.89,NE,45,5.0,6.0,100,0.00,,,1.28,,2013-05-05 14:01:00,
2013-05-05 10:11:00,54.0,54.0,29.90,NE,45,2.0,4.0,100,0.00,,,1.30,,2013-05-05 14:11:00,
2013-05-05 10:21:00,54.0,54.0,29.90,NE,45,2.0,4.0,100,0.00,,,1.30,,2013-05-05 14:21:00,
2013-05-05 10:31:00,54.0,54.0,29.90,NE,45,2.0,4.0,100,0.00,,,1.30,,2013-05-05 14:31:00,
2013-05-05 10:42:00,54.0,54.0,29.90,NE,45,2.0,4.0,100,0.00,,,1.30,,2013-05-05 14:42:00,
2013-05-05 10:52:00,54.0,54.0,29.89,North,360,4.0,7.0,100,0.00,,,1.31,,2013-05-05 14:52:00,
2013-05-05 11:01:00,55.0,55.0,29.89,NE,45,2.0,4.0,100,0.00,,,1.31,,2013-05-05 15:01:00,
2013-05-05 11:11:00,55.0,55.0,29.89,NE,45,2.0,4.0,100,0.00,,,1.31,,2013-05-05 15:11:00,
2013-05-05 11:21:00,55.0,55.0,29.89,East,90,3.0,6.0,100,0.00,,,1.31,,2013-05-05 15:21:00,
2013-05-05 11:33:00,54.0,54.0,29.89,NE,45,3.0,7.0,100,0.00,,,1.31,,2013-05-05 15:33:00,
2013-05-05 11:43:00,54.0,54.0,29.89,NE,45,3.0,7.0,100,0.00,,,1.31,,2013-05-05 15:43:00,
2013-05-05 11:53:00,54.0,54.0,29.89,NE,45,4.0,7.0,100,0.00,,,1.32,,2013-05-05 15:53:00,
2013-05-05 12:03:00,54.0,54.0,29.89,NE,45,2.0,6.0,100,0.00,,,1.32,,2013-05-05 16:03:00,
2013-05-05 12:12:00,54.0,54.0,29.89,NE,45,2.0,6.0,100,0.00,,,1.32,,2013-05-05 16:12:00,
2013-05-05 12:22:00,54.0,54.0,29.90,East,90,4.0,8.0,100,0.00,,,1.32,,2013-05-05 16:22:00,
2013-05-05 12:32:00,54.0,54.0,29.90,SE,135,2.0,6.0,100,0.00,,,1.32,,2013-05-05 16:32:00,
2013-05-05 12:42:00,54.0,54.0,29.90,SE,135,2.0,6.0,100,0.00,,,1.32,,2013-05-05 16:42:00,
2013-05-05 12:53:00,54.0,54.0,29.90,NE,45,3.0,8.0,100,0.00,,,1.32,,2013-05-05 16:53:00,
2013-05-05 13:02:00,54.0,54.0,29.90,East,90,6.0,11.0,100,0.00,,,1.32,,2013-05-05 17:02:00,
2013-05-05 13:12:00,54.0,54.0,29.90,East,90,6.0,11.0,100,0.00,,,1.32,,2013-05-05 17:12:00,
2013-05-05 13:23:00,54.0,54.0,29.90,ENE,67,5.0,7.0,100,0.00,,,1.32,,2013-05-05 17:23:00,
2013-05-05 13:32:00,54.0,54.0,29.90,SE,135,2.0,5.0,100,0.00,,,1.33,,2013-05-05 17:32:00,
2013-05-05 13:42:00,54.0,54.0,29.90,SE,135,2.0,5.0,100,0.00,,,1.33,,2013-05-05 17:42:00,
2013-05-05 13:52:00,54.0,54.0,29.89,NNW,337,3.0,7.0,100,0.00,,,1.32,,2013-05-05 17:52:00,
2013-05-05 14:01:00,54.0,54.0,29.89,NNW,337,3.0,7.0,100,0.00,,,1.32,,2013-05-05 18:01:00,
2013-05-05 14:12:00,54.0,54.0,29.89,NNW,337,3.0,7.0,100,0.00,,,1.32,,2013-05-05 18:12:00,
2013-05-05 14:21:00,54.0,54.0,29.88,NNE,22,5.0,9.0,100,0.00,,,1.26,,2013-05-05 18:21:00,
2013-05-05 14:32:00,54.0,54.0,29.89,NE,45,4.0,7.0,100,0.00,,,1.22,,2013-05-05 18:32:00,
2013-05-05 14:42:00,54.0,54.0,29.89,NE,45,4.0,7.0,100,0.00,,,1.22,,2013-05-05 18:42:00,
2013-05-05 14:52:00,54.0,54.0,29.89,ENE,67,1.0,4.0,100,0.00,,,1.21,,2013-05-05 18:52:00,
2013-05-05 15:01:00,53.0,53.0,29.89,East,90,4.0,7.0,100,0.00,,,1.19,,2013-05-05 19:01:00,
2013-05-05 15:11:00,53.0,53.0,29.89,East,90,4.0,7.0,100,0.00,,,1.19,,2013-05-05 19:11:00,
2013-05-05 15:21:00,53.0,53.0,29.89,East,90,8.0,13.0,100,0.00,,,1.18,,2013-05-05 19:21:00,
2013-05-05 15:32:00,53.0,53.0,29.89,ESE,112,4.0,7.0,100,0.00,,,1.14,,2013-05-05 19:32:00,
2013-05-05 15:42:00,53.0,53.0,29.89,ESE,112,4.0,7.0,100,0.00,,,1.14,,2013-05-05 19:42:00,
2013-05-05 15:52:00,53.0,53.0,29.89,ENE,67,7.0,14.0,100,0.00,,,1.11,,2013-05-05 19:52:00,
2013-05-05 16:01:00,53.0,53.0,29.89,NE,45,3.0,5.0,100,0.00,,,1.09,,2013-05-05 20:01:00,
2013-05-05 16:11:00,53.0,53.0,29.89,NE,45,3.0,5.0,100,0.00,,,1.09,,2013-05-05 20:11:00,
2013-05-05 16:21:00,53.0,53.0,29.88,ENE,67,2.0,5.0,100,0.00,,,1.08,,2013-05-05 20:21:00,
2013-05-05 16:31:00,53.0,53.0,29.88,NE,45,2.0,4.0,100,0.00,,,1.06,,2013-05-05 20:31:00,
2013-05-05 16:41:00,53.0,53.0,29.88,NE,45,2.0,4.0,100,0.00,,,1.06,,2013-05-05 20:41:00,
2013-05-05 16:52:00,53.0,53.0,29.88,SE,135,4.0,6.0,100,0.00,,,1.06,,2013-05-05 20:52:00,
2013-05-05 17:01:00,53.0,53.0,29.87,SE,135,0.0,2.0,100,0.00,,,1.06,,2013-05-05 21:01:00,
2013-05-05 17:11:00,53.0,53.0,29.87,SE,135,0.0,2.0,100,0.00,,,1.06,,2013-05-05 21:11:00,
2013-05-05 17:21:00,53.0,53.0,29.87,NE,45,4.0,6.0,100,0.00,,,1.06,,2013-05-05 21:21:00,
2013-05-05 17:33:00,53.0,53.0,29.87,ESE,112,5.0,7.0,100,0.00,,,1.05,,2013-05-05 21:33:00,
2013-05-05 17:42:00,53.0,53.0,29.87,ESE,112,5.0,7.0,100,0.00,,,1.05,,2013-05-05 21:42:00,
2013-05-05 17:52:00,53.0,53.0,29.87,ESE,112,5.0,8.0,100,0.00,,,1.04,,2013-05-05 21:52:00,
2013-05-05 18:02:00,53.0,53.0,29.87,East,90,4.0,7.0,100,0.00,,,1.04,,2013-05-05 22:02:00,
2013-05-05 18:12:00,53.0,53.0,29.87,East,90,4.0,7.0,100,0.00,,,1.04,,2013-05-05 22:12:00,
2013-05-05 18:22:00,53.0,53.0,29.88,East,90,3.0,6.0,100,0.00,,,1.04,,2013-05-05 22:22:00,
2013-05-05 18:33:00,53.0,53.0,29.88,ENE,67,3.0,5.0,100,0.00,,,1.02,,2013-05-05 22:33:00,
2013-05-05 18:42:00,53.0,53.0,29.88,ENE,67,3.0,5.0,100,0.00,,,1.02,,2013-05-05 22:42:00,
2013-05-05 18:52:00,53.0,53.0,29.88,NE,45,4.0,8.0,100,0.00,,,1.01,,2013-05-05 22:52:00,
2013-05-05 19:02:00,53.0,53.0,29.88,ENE,67,4.0,8.0,100,0.00,,,1.01,,2013-05-05 23:02:00,
2013-05-05 19:11:00,53.0,53.0,29.88,ENE,67,4.0,8.0,100,0.00,,,1.01,,2013-05-05 23:11:00,
2013-05-05 19:21:00,53.0,53.0,29.88,SE,135,6.0,12.0,100,0.00,,,1.00,,2013-05-05 23:21:00,
2013-05-05 19:32:00,53.0,53.0,29.88,East,90,4.0,7.0,100,0.00,,,1.00,,2013-05-05 23:32:00,
2013-05-05 19:42:00,53.0,53.0,29.88,East,90,4.0,7.0,100,0.00,,,1.00,,2013-05-05 23:42:00,
2013-05-05 19:52:00,53.0,53.0,29.88,East,90,2.0,5.0,100,0.00,,,1.00,,2013-05-05 23:52:00,
2013-05-05 20:01:00,53.0,53.0,29.89,SE,135,5.0,10.0,100,0.00,,,1.00,,2013-05-06 00:01:00,
2013-05-05 20:11:00,53.0,53.0,29.89,SE,135,5.0,10.0,100,0.00,,,1.00,,2013-05-06 00:11:00,
2013-05-05 20:21:00,52.0,52.0,29.89,ESE,112,3.0,5.0,100,0.00,,,1.00,,2013-05-06 00:21:00,
2013-05-05 20:31:00,52.0,52.0,29.89,ESE,112,3.0,4.0,100,0.00,,,1.00,,2013-05-06 00:31:00,
2013-05-05 20:41:00,52.0,52.0,29.89,ESE,112,3.0,4.0,100,0.00,,,1.00,,2013-05-06 00:41:00,
2013-05-05 20:51:00,52.0,52.0,29.89,East,90,2.0,7.0,100,0.00,,,1.01,,2013-05-06 00:51:00,
2013-05-05 21:01:00,52.0,52.0,29.89,ENE,67,1.0,4.0,100,0.00,,,1.01,,2013-05-06 01:01:00,
2013-05-05 21:11:00,52.0,52.0,29.89,ENE,67,1.0,4.0,100,0.00,,,1.01,,2013-05-06 01:11:00,
2013-05-05 21:21:00,52.0,52.0,29.89,NE,45,3.0,5.0,100,0.00,,,1.01,,2013-05-06 01:21:00,
2013-05-05 21:31:00,52.0,52.0,29.89,NE,45,2.0,3.0,100,0.00,,,1.01,,2013-05-06 01:31:00,
2013-05-05 21:41:00,52.0,52.0,29.89,NE,45,2.0,3.0,100,0.00,,,1.01,,2013-05-06 01:41:00,
2013-05-05 21:52:00,52.0,52.0,29.89,NE,45,2.0,3.0,100,0.00,,,1.02,,2013-05-06 01:52:00,
2013-05-05 22:01:00,52.0,52.0,29.88,East,90,1.0,3.0,100,0.00,,,0.99,,2013-05-06 02:01:00,
2013-05-05 22:12:00,52.0,52.0,29.88,East,90,1.0,3.0,100,0.00,,,0.99,,2013-05-06 02:12:00,
2013-05-05 22:21:00,52.0,52.0,29.88,North,360,2.0,3.0,100,0.00,,,0.96,,2013-05-06 02:21:00,
2013-05-05 22:32:00,52.0,52.0,29.88,NE,45,2.0,4.0,100,0.00,,,0.94,,2013-05-06 02:32:00,
2013-05-05 22:42:00,52.0,52.0,29.88,NE,45,2.0,4.0,100,0.00,,,0.94,,2013-05-06 02:42:00,
2013-05-05 22:52:00,52.0,52.0,29.89,NE,45,2.0,4.0,100,0.00,,,0.92,,2013-05-06 02:52:00,
2013-05-05 23:01:00,52.0,52.0,29.89,NE,45,2.0,3.0,100,0.00,,,0.90,,2013-05-06 03:01:00,
2013-05-05 23:11:00,52.0,52.0,29.89,NE,45,2.0,3.0,100,0.00,,,0.90,,2013-05-06 03:11:00,
2013-05-05 23:22:00,52.0,52.0,29.89,NE,45,2.0,3.0,100,0.00,,,0.90,,2013-05-06 03:22:00,
2013-05-05 23:33:00,52.0,52.0,29.89,NE,45,4.0,6.0,100,0.00,,,0.86,,2013-05-06 03:33:00,
2013-05-05 23:42:00,52.0,52.0,29.89,NE,45,4.0,6.0,100,0.00,,,0.86,,2013-05-06 03:42:00,
2013-05-05 23:52:00,52.0,52.0,29.88,North,360,3.0,6.0,100,0.00,,,0.87,,2013-05-06 03:52:00,